PAMK

Details ICAO PAMK (SMK)
Name ST MICHAEL
Region USA (Alaska)
Timezone America/Nome (UTC-8.0)
Plans Departing 2
Arriving 3
Stats Elevation 93 ft / 28 m (AMSL)
Location 63.490049° -162.110378°
Runways 1
Magnetic Variation 11.404° E
Sunrise 2018-05-22 13:20:33 UTC / 2018-05-22 05:20:33 Local
Sunset 2018-05-23 08:12:35 UTC / 2018-05-23 00:12:35 Local
Advertisement - Login to hide

Runways

ID Width Length Bearing (true) Bearing (mag) Surface Threshold Offset Overrun Length
02 75 ft / 23 m 3,991 ft / 1,216 m 32.86° 21.46° Gravel 0 ft / 0 m 299 ft / 91 m
20 75 ft / 23 m 3,991 ft / 1,216 m 212.87° 201.47° Gravel 0 ft / 0 m 299 ft / 91 m

Map

Weather


0- 5 10 15 20 25 30 35+ Temperature / ° C

Clouds and Precipitation
Forecast for 2018-05-23 00:00 UTC. Updated an hour ago

Ground ~20,000 ft ~40,000 ft Winds

METAR

PAMK 222356Z AUTO 26016KT 10SM OVC010 04/02 A2967 RMK AO2 CIG 008V012 SLP051 T00440017 10056 20039 53003 $

TAF

Not found

Frequencies

Recorded 119.27 MHz ASOS
Unicom 122.80 MHz CTAF/UNICOM
Warning: Do not use this data for real-world aviation or navigation. No guarantee of current accuracy is given.